Time;durP1;ratioP1;P1;durP2;ratioP2;P2;SDS_P1;SDS_P2;PMS_P1;PMS_P2;Temp;Humidity;BMP_temperature;BMP_pressure;BME280_temperature;BME280_humidity;BME280_pressure;Samples;Min_cycle;Max_cycle;Signal;HPM_P1;HPM_P2
2021/10/07 00:01:21;;;;;;;12.10;10.80;;;;;;;;;;5110460;27;20810;-80
2021/10/07 00:03:48;;;;;;;12.03;10.47;;;;;;;;;;5103843;27;21679;-78
2021/10/07 00:06:15;;;;;;;14.67;10.43;;;;;;;;;;5112368;28;20486;-82
2021/10/07 00:08:42;;;;;;;10.77;9.13;;;;;;;;;;5111696;27;20467;-79
2021/10/07 00:11:12;;;;;;;11.60;10.37;;;;;;;;;;5107821;27;20445;-80
2021/10/07 00:13:39;;;;;;;11.80;9.43;;;;;;;;;;5113435;27;20465;-80
2021/10/07 00:16:10;;;;;;;10.37;9.37;;;;;;;;;;5109802;28;20540;-77
2021/10/07 00:18:39;;;;;;;10.10;9.10;;;;;;;;;;5106143;27;20457;-77
2021/10/07 00:21:07;;;;;;;12.10;9.30;;;;;;;;;;5104363;27;20545;-81
2021/10/07 00:23:38;;;;;;;16.83;10.37;;;;;;;;;;5114568;27;20465;-79
2021/10/07 00:26:06;;;;;;;17.90;11.20;;;;;;;;;;5115558;27;20981;-78
2021/10/07 00:28:33;;;;;;;12.07;10.17;;;;;;;;;;5108778;27;20464;-81
2021/10/07 00:31:03;;;;;;;11.47;9.70;;;;;;;;;;5107156;27;20478;-82
2021/10/07 00:33:38;;;;;;;11.00;9.67;;;;;;;;;;5110989;28;20461;-80
2021/10/07 00:36:13;;;;;;;12.47;9.73;;;;;;;;;;5112219;28;20430;-78
2021/10/07 00:41:21;;;;;;;12.27;10.37;;;;;;;;;;5110278;27;20471;-80
2021/10/07 00:43:49;;;;;;;11.20;9.40;;;;;;;;;;5103254;27;20467;-80
2021/10/07 00:46:16;;;;;;;19.40;9.50;;;;;;;;;;5110603;28;20493;-81
2021/10/07 00:48:44;;;;;;;9.23;8.20;;;;;;;;;;5111884;28;20825;-82
2021/10/07 00:51:12;;;;;;;10.30;8.03;;;;;;;;;;5114196;28;20461;-80
2021/10/07 00:53:39;;;;;;;9.97;8.87;;;;;;;;;;5114926;27;20469;-82
2021/10/07 00:56:06;;;;;;;9.57;8.57;;;;;;;;;;5111253;27;20630;-82
2021/10/07 00:58:33;;;;;;;11.00;8.67;;;;;;;;;;5109823;28;20444;-80
2021/10/07 01:01:01;;;;;;;13.47;9.77;;;;;;;;;;5111692;28;20773;-80
2021/10/07 01:03:29;;;;;;;12.77;8.70;;;;;;;;;;5104317;28;20477;-81
2021/10/07 01:05:58;;;;;;;12.17;8.57;;;;;;;;;;5101823;27;20538;-77
2021/10/07 01:08:25;;;;;;;9.27;8.37;;;;;;;;;;5134875;27;20442;-81
2021/10/07 01:10:52;;;;;;;11.07;8.83;;;;;;;;;;5136102;27;20791;-82
2021/10/07 01:13:19;;;;;;;11.57;8.33;;;;;;;;;;5104060;27;20503;-83
2021/10/07 01:15:46;;;;;;;9.80;7.47;;;;;;;;;;5107313;27;20459;-81
2021/10/07 01:18:14;;;;;;;12.53;8.77;;;;;;;;;;5106281;27;21078;-79
2021/10/07 01:20:42;;;;;;;9.53;8.57;;;;;;;;;;5109415;28;20447;-80
2021/10/07 01:23:09;;;;;;;14.87;9.00;;;;;;;;;;5111094;28;21008;-78
2021/10/07 01:25:36;;;;;;;12.90;9.50;;;;;;;;;;5103956;27;20461;-79
2021/10/07 01:28:03;;;;;;;11.10;9.30;;;;;;;;;;5106652;28;20458;-79
2021/10/07 01:30:31;;;;;;;10.87;9.10;;;;;;;;;;5113712;28;20439;-78
2021/10/07 01:32:58;;;;;;;10.00;8.37;;;;;;;;;;5105646;28;20478;-77
2021/10/07 01:35:26;;;;;;;9.70;8.70;;;;;;;;;;5112089;28;20443;-82
2021/10/07 01:37:55;;;;;;;11.40;9.83;;;;;;;;;;5116560;27;20759;-78
2021/10/07 01:40:22;;;;;;;13.37;9.37;;;;;;;;;;5114790;28;20450;-80
2021/10/07 01:42:49;;;;;;;13.43;9.60;;;;;;;;;;5109433;28;20460;-80
2021/10/07 01:45:16;;;;;;;11.27;9.17;;;;;;;;;;5110784;28;20522;-81
2021/10/07 01:47:43;;;;;;;13.47;8.87;;;;;;;;;;5112118;28;20486;-79
2021/10/07 01:50:12;;;;;;;12.40;9.47;;;;;;;;;;5111817;28;20460;-79
2021/10/07 01:52:40;;;;;;;10.77;9.50;;;;;;;;;;5111112;28;20469;-79
2021/10/07 01:55:10;;;;;;;11.30;10.20;;;;;;;;;;5118165;28;20437;-79
2021/10/07 01:57:37;;;;;;;13.83;10.20;;;;;;;;;;5117846;27;20826;-81
2021/10/07 02:00:06;;;;;;;10.83;9.70;;;;;;;;;;5113841;28;20442;-80
2021/10/07 02:02:41;;;;;;;12.77;10.07;;;;;;;;;;5115029;28;20832;-77
2021/10/07 02:05:08;;;;;;;11.17;9.23;;;;;;;;;;5115225;27;20461;-81
2021/10/07 02:07:35;;;;;;;10.63;9.63;;;;;;;;;;5109789;27;20480;-79
2021/10/07 02:10:04;;;;;;;10.40;9.20;;;;;;;;;;5106637;27;20860;-81
2021/10/07 02:12:32;;;;;;;12.93;11.53;;;;;;;;;;5121066;27;20486;-79
2021/10/07 02:15:00;;;;;;;13.83;10.87;;;;;;;;;;5133880;27;20786;-81
2021/10/07 02:17:27;;;;;;;16.73;10.60;;;;;;;;;;5115442;27;20461;-82
2021/10/07 02:19:54;;;;;;;16.20;11.57;;;;;;;;;;5107815;27;20455;-79
2021/10/07 02:22:21;;;;;;;19.27;12.17;;;;;;;;;;5120715;27;20444;-79
2021/10/07 02:24:48;;;;;;;16.67;12.33;;;;;;;;;;5114738;27;20448;-79
2021/10/07 02:27:15;;;;;;;14.20;12.10;;;;;;;;;;5112305;28;20490;-78
2021/10/07 02:29:44;;;;;;;19.77;15.03;;;;;;;;;;5114415;28;20766;-80
2021/10/07 02:32:11;;;;;;;16.17;12.50;;;;;;;;;;5105216;27;20460;-77
2021/10/07 02:34:38;;;;;;;15.53;12.73;;;;;;;;;;5102707;27;20450;-77
2021/10/07 02:37:05;;;;;;;12.27;10.97;;;;;;;;;;5117423;27;20802;-78
2021/10/07 02:39:33;;;;;;;15.10;13.23;;;;;;;;;;5120449;27;20460;-79
2021/10/07 02:42:00;;;;;;;15.57;12.50;;;;;;;;;;5116362;28;20444;-79
2021/10/07 02:44:27;;;;;;;16.47;13.57;;;;;;;;;;5113573;27;20455;-81
2021/10/07 02:46:55;;;;;;;15.23;12.63;;;;;;;;;;5124244;27;20477;-79
2021/10/07 02:49:23;;;;;;;14.57;13.07;;;;;;;;;;5130558;27;20439;-79
2021/10/07 02:51:50;;;;;;;16.47;13.47;;;;;;;;;;5107899;27;20458;-78
2021/10/07 02:54:17;;;;;;;22.27;14.23;;;;;;;;;;5114025;28;20465;-79
2021/10/07 02:56:44;;;;;;;22.47;12.90;;;;;;;;;;5109811;27;20461;-79
2021/10/07 02:59:12;;;;;;;18.77;14.27;;;;;;;;;;5102225;27;20459;-80
2021/10/07 03:01:40;;;;;;;14.90;12.97;;;;;;;;;;5115262;27;20929;-80
2021/10/07 03:04:08;;;;;;;17.10;14.40;;;;;;;;;;5116021;28;20462;-78
2021/10/07 03:06:35;;;;;;;16.93;13.70;;;;;;;;;;5113047;27;21002;-78
2021/10/07 03:09:02;;;;;;;15.57;12.37;;;;;;;;;;5116733;27;20435;-79
2021/10/07 03:11:29;;;;;;;16.37;13.00;;;;;;;;;;5113483;28;20438;-80
2021/10/07 03:13:57;;;;;;;21.30;15.30;;;;;;;;;;5105056;27;20479;-79
2021/10/07 03:16:24;;;;;;;16.93;13.47;;;;;;;;;;5113845;28;20446;-80
2021/10/07 03:18:51;;;;;;;16.77;13.73;;;;;;;;;;5104418;28;20454;-79
2021/10/07 03:21:19;;;;;;;19.80;13.60;;;;;;;;;;5113294;27;20882;-79
2021/10/07 03:23:46;;;;;;;17.40;13.90;;;;;;;;;;5123761;27;20446;-79
2021/10/07 03:26:14;;;;;;;18.07;14.77;;;;;;;;;;5122980;27;20788;-79
2021/10/07 03:28:41;;;;;;;21.70;15.30;;;;;;;;;;5109454;27;20956;-77
2021/10/07 03:31:08;;;;;;;18.03;14.50;;;;;;;;;;5113432;28;20441;-78
2021/10/07 03:33:35;;;;;;;19.77;15.10;;;;;;;;;;5107111;27;20479;-79
2021/10/07 03:36:02;;;;;;;17.00;14.70;;;;;;;;;;5103631;27;20826;-79
2021/10/07 03:38:31;;;;;;;18.80;14.93;;;;;;;;;;5132783;27;20448;-80
2021/10/07 03:40:59;;;;;;;19.40;15.43;;;;;;;;;;5110516;27;20501;-81
2021/10/07 03:43:26;;;;;;;22.03;15.63;;;;;;;;;;5118288;27;20460;-79
2021/10/07 03:45:53;;;;;;;22.50;16.57;;;;;;;;;;5114801;27;20433;-77
2021/10/07 03:48:21;;;;;;;19.53;14.37;;;;;;;;;;5107571;27;20856;-80
2021/10/07 03:50:48;;;;;;;21.90;16.60;;;;;;;;;;5112840;28;20435;-79
2021/10/07 03:53:15;;;;;;;23.70;16.33;;;;;;;;;;5107830;27;20474;-77
2021/10/07 03:55:43;;;;;;;18.00;14.17;;;;;;;;;;5098993;27;20472;-78
2021/10/07 03:58:11;;;;;;;21.10;14.40;;;;;;;;;;5113134;27;20447;-77
2021/10/07 04:00:38;;;;;;;20.20;15.70;;;;;;;;;;5115016;28;20803;-78
2021/10/07 04:03:05;;;;;;;18.70;14.03;;;;;;;;;;5106663;27;22649;-79
2021/10/07 04:05:32;;;;;;;23.87;16.50;;;;;;;;;;5105958;27;20451;-80
2021/10/07 04:07:59;;;;;;;20.73;14.37;;;;;;;;;;5115511;27;20474;-82
2021/10/07 04:10:27;;;;;;;19.00;14.50;;;;;;;;;;5112286;28;20791;-80
2021/10/07 04:12:55;;;;;;;21.00;14.40;;;;;;;;;;5101902;27;20643;-80
2021/10/07 04:15:22;;;;;;;20.87;15.07;;;;;;;;;;5110879;28;20450;-80
2021/10/07 04:17:50;;;;;;;18.60;14.63;;;;;;;;;;5117930;27;20458;-81
2021/10/07 04:20:17;;;;;;;21.30;14.57;;;;;;;;;;5117201;27;20982;-80
2021/10/07 04:22:44;;;;;;;22.20;15.83;;;;;;;;;;5112240;27;21377;-82
2021/10/07 04:25:11;;;;;;;19.60;14.83;;;;;;;;;;5115621;27;20461;-78
2021/10/07 04:27:38;;;;;;;23.10;16.57;;;;;;;;;;5135256;27;20526;-82
2021/10/07 04:30:08;;;;;;;26.40;15.73;;;;;;;;;;5122068;27;20469;-77
2021/10/07 04:32:35;;;;;;;20.97;15.87;;;;;;;;;;5111172;28;20457;-80
2021/10/07 04:35:02;;;;;;;26.80;16.97;;;;;;;;;;5114085;27;20454;-79
2021/10/07 04:37:29;;;;;;;21.00;13.70;;;;;;;;;;5105078;27;20465;-80
2021/10/07 04:39:56;;;;;;;21.73;15.10;;;;;;;;;;5113804;27;20450;-80
2021/10/07 04:42:24;;;;;;;21.47;15.30;;;;;;;;;;5111295;27;20471;-79
2021/10/07 04:44:51;;;;;;;23.67;16.37;;;;;;;;;;5106483;27;20455;-78
2021/10/07 04:47:19;;;;;;;23.30;14.87;;;;;;;;;;5111102;28;20475;-80
2021/10/07 04:49:46;;;;;;;28.60;15.90;;;;;;;;;;5106248;27;20455;-78
2021/10/07 04:52:13;;;;;;;24.63;15.50;;;;;;;;;;5100822;27;20778;-79
2021/10/07 04:54:41;;;;;;;22.47;16.67;;;;;;;;;;5113015;28;20931;-80
2021/10/07 04:57:08;;;;;;;27.03;16.43;;;;;;;;;;5115693;28;20422;-80
2021/10/07 04:59:35;;;;;;;29.00;16.30;;;;;;;;;;5116540;28;20453;-78
2021/10/07 05:02:02;;;;;;;27.33;17.33;;;;;;;;;;5113137;27;20449;-83
2021/10/07 05:04:44;;;;;;;27.97;17.30;;;;;;;;;;5109454;28;20454;-78
2021/10/07 05:07:12;;;;;;;26.67;14.87;;;;;;;;;;5067902;28;20468;-77
2021/10/07 05:09:40;;;;;;;29.23;16.73;;;;;;;;;;5061260;28;20487;-80
2021/10/07 05:12:07;;;;;;;30.70;16.93;;;;;;;;;;5061383;28;20476;-79
2021/10/07 05:14:35;;;;;;;22.97;16.40;;;;;;;;;;5074838;28;20447;-80
2021/10/07 05:17:03;;;;;;;28.23;16.23;;;;;;;;;;5058993;28;20462;-79
2021/10/07 05:19:30;;;;;;;24.67;17.40;;;;;;;;;;5067640;28;20450;-78
2021/10/07 05:21:57;;;;;;;25.53;15.10;;;;;;;;;;5068577;28;20459;-79
2021/10/07 05:24:26;;;;;;;24.40;15.10;;;;;;;;;;5051289;28;20461;-80
2021/10/07 05:26:53;;;;;;;21.97;15.10;;;;;;;;;;5062095;28;20498;-81
2021/10/07 05:29:20;;;;;;;25.87;15.57;;;;;;;;;;5068703;28;20445;-82
2021/10/07 05:31:48;;;;;;;22.50;16.50;;;;;;;;;;5054341;28;20454;-78
2021/10/07 05:34:15;;;;;;;27.07;15.47;;;;;;;;;;5061798;28;20550;-78
2021/10/07 05:36:43;;;;;;;24.17;15.80;;;;;;;;;;5078198;28;20466;-77
2021/10/07 05:39:10;;;;;;;25.77;15.37;;;;;;;;;;5103427;27;20452;-82
2021/10/07 05:41:39;;;;;;;25.43;15.37;;;;;;;;;;5115581;28;20440;-78
2021/10/07 05:44:09;;;;;;;24.20;15.97;;;;;;;;;;5108985;27;20478;-80
2021/10/07 05:46:36;;;;;;;26.13;17.90;;;;;;;;;;5094793;28;20443;-79
2021/10/07 05:49:03;;;;;;;28.07;16.50;;;;;;;;;;5110311;27;20471;-81
2021/10/07 05:51:30;;;;;;;23.90;16.23;;;;;;;;;;5113590;27;20455;-78
2021/10/07 05:53:58;;;;;;;27.80;16.87;;;;;;;;;;5131777;27;20454;-81
2021/10/07 05:56:25;;;;;;;26.30;15.57;;;;;;;;;;5130989;27;20444;-81
2021/10/07 05:58:54;;;;;;;23.17;15.73;;;;;;;;;;5102797;27;20858;-81
2021/10/07 06:01:21;;;;;;;24.70;14.50;;;;;;;;;;5118081;28;20534;-80
2021/10/07 06:03:48;;;;;;;25.17;15.03;;;;;;;;;;5111889;27;20466;-81
2021/10/07 06:06:15;;;;;;;23.17;15.67;;;;;;;;;;5121731;27;20469;-81
2021/10/07 06:08:43;;;;;;;25.23;16.07;;;;;;;;;;5116945;27;20569;-82
2021/10/07 06:11:10;;;;;;;21.53;15.00;;;;;;;;;;5108411;27;20722;-82
2021/10/07 06:13:37;;;;;;;27.23;17.03;;;;;;;;;;5113787;28;20485;-82
2021/10/07 06:16:05;;;;;;;28.17;17.80;;;;;;;;;;5115423;27;20434;-83
2021/10/07 06:18:34;;;;;;;28.23;19.20;;;;;;;;;;5114972;27;20465;-80
2021/10/07 06:21:01;;;;;;;29.60;17.33;;;;;;;;;;5123330;27;20795;-78
2021/10/07 06:23:28;;;;;;;24.93;16.67;;;;;;;;;;5113914;27;20953;-79
2021/10/07 06:25:56;;;;;;;25.70;17.60;;;;;;;;;;5126709;27;20453;-78
2021/10/07 06:28:23;;;;;;;28.37;18.63;;;;;;;;;;5134914;27;20477;-79
2021/10/07 06:30:50;;;;;;;24.10;17.57;;;;;;;;;;5114252;27;20455;-79
2021/10/07 06:33:18;;;;;;;25.17;16.50;;;;;;;;;;5112503;27;20484;-77
2021/10/07 06:35:46;;;;;;;21.57;14.60;;;;;;;;;;5114105;28;20491;-78
2021/10/07 06:38:13;;;;;;;23.27;16.27;;;;;;;;;;5116608;28;20446;-78
2021/10/07 06:40:40;;;;;;;29.13;15.70;;;;;;;;;;5107444;27;20464;-78
2021/10/07 06:43:07;;;;;;;26.40;16.23;;;;;;;;;;5114831;27;20484;-82
2021/10/07 06:45:34;;;;;;;27.53;16.07;;;;;;;;;;5115443;27;20805;-84
2021/10/07 06:48:01;;;;;;;23.67;17.20;;;;;;;;;;5106844;28;20843;-81
2021/10/07 06:50:30;;;;;;;23.93;15.60;;;;;;;;;;5033709;28;20921;-78
2021/10/07 06:52:58;;;;;;;26.63;16.77;;;;;;;;;;5098252;28;20458;-77
2021/10/07 06:55:25;;;;;;;28.80;17.77;;;;;;;;;;5112183;28;20512;-81
2021/10/07 06:57:52;;;;;;;21.90;16.60;;;;;;;;;;5115303;28;20521;-80
2021/10/07 07:00:19;;;;;;;26.20;16.77;;;;;;;;;;5116210;27;20453;-83
2021/10/07 07:02:47;;;;;;;25.90;17.13;;;;;;;;;;5129413;27;20446;-83
2021/10/07 07:05:14;;;;;;;22.33;15.37;;;;;;;;;;5112966;27;20459;-81
2021/10/07 07:07:46;;;;;;;25.50;16.10;;;;;;;;;;5106744;27;20791;-82
2021/10/07 07:10:18;;;;;;;26.90;17.93;;;;;;;;;;5114448;28;20469;-82
2021/10/07 07:12:45;;;;;;;27.77;18.53;;;;;;;;;;5127530;27;20470;-80
2021/10/07 07:15:13;;;;;;;24.87;15.87;;;;;;;;;;5108015;27;20446;-80
2021/10/07 07:17:41;;;;;;;25.13;15.20;;;;;;;;;;5119155;27;20497;-80
2021/10/07 07:20:09;;;;;;;25.10;17.00;;;;;;;;;;5111170;28;20457;-83
2021/10/07 07:22:36;;;;;;;30.53;17.53;;;;;;;;;;5115751;27;20464;-76
2021/10/07 07:25:05;;;;;;;27.20;17.83;;;;;;;;;;5121429;27;20428;-84
2021/10/07 07:27:34;;;;;;;24.27;16.47;;;;;;;;;;5117646;27;20461;-80
2021/10/07 07:30:01;;;;;;;25.30;16.20;;;;;;;;;;5116173;27;20425;-82
2021/10/07 07:32:29;;;;;;;24.83;16.33;;;;;;;;;;5123377;27;20487;-79
2021/10/07 07:37:22;;;;;;;27.10;17.77;;;;;;;;;;5110731;27;20457;-80
2021/10/07 07:39:49;;;;;;;27.20;16.87;;;;;;;;;;5117872;27;20190;-80
2021/10/07 07:42:19;;;;;;;27.40;17.93;;;;;;;;;;5106973;27;20475;-85
2021/10/07 07:44:53;;;;;;;26.57;17.40;;;;;;;;;;5109553;28;20972;-82
2021/10/07 07:47:26;;;;;;;27.23;18.00;;;;;;;;;;5104851;27;20458;-78
2021/10/07 07:49:53;;;;;;;22.53;16.77;;;;;;;;;;5101233;27;20490;-78
2021/10/07 07:52:22;;;;;;;25.03;17.17;;;;;;;;;;5115703;27;20462;-79
2021/10/07 07:54:49;;;;;;;30.77;20.37;;;;;;;;;;5116315;27;20962;-80
2021/10/07 07:57:18;;;;;;;29.63;20.60;;;;;;;;;;5099843;27;20791;-81
2021/10/07 07:59:45;;;;;;;30.07;21.53;;;;;;;;;;5088678;28;20436;-79
2021/10/07 08:02:15;;;;;;;33.23;20.57;;;;;;;;;;5091669;28;20478;-80
2021/10/07 08:04:43;;;;;;;29.43;20.67;;;;;;;;;;5115698;27;20528;-78
2021/10/07 08:07:10;;;;;;;30.37;20.20;;;;;;;;;;5116002;27;20453;-81
2021/10/07 08:09:42;;;;;;;36.03;24.13;;;;;;;;;;5119736;27;20481;-81
2021/10/07 08:12:12;;;;;;;28.43;20.47;;;;;;;;;;5130344;27;20830;-80
2021/10/07 08:14:41;;;;;;;32.87;23.53;;;;;;;;;;5132329;27;20433;-80
2021/10/07 08:17:08;;;;;;;30.67;23.07;;;;;;;;;;5133177;27;20441;-83
2021/10/07 08:19:35;;;;;;;31.57;23.27;;;;;;;;;;5116028;27;20455;-78
2021/10/07 08:22:02;;;;;;;32.70;22.90;;;;;;;;;;5100240;28;20543;-81
2021/10/07 08:24:31;;;;;;;29.87;21.90;;;;;;;;;;5094142;28;20414;-77
2021/10/07 08:26:59;;;;;;;34.37;22.33;;;;;;;;;;5105823;27;20806;-78
2021/10/07 08:29:26;;;;;;;30.07;21.80;;;;;;;;;;5116416;27;20490;-84
2021/10/07 08:31:54;;;;;;;31.13;22.20;;;;;;;;;;5111734;28;20449;-79
2021/10/07 08:34:22;;;;;;;32.07;21.87;;;;;;;;;;5102856;28;20995;-78
2021/10/07 08:36:49;;;;;;;30.20;21.20;;;;;;;;;;5098553;28;20467;-78
2021/10/07 08:39:17;;;;;;;35.47;23.97;;;;;;;;;;5114729;27;20918;-78
2021/10/07 08:41:45;;;;;;;30.30;22.27;;;;;;;;;;5114090;27;20936;-76
2021/10/07 08:44:13;;;;;;;33.37;22.73;;;;;;;;;;5113040;27;20466;-79
2021/10/07 08:46:41;;;;;;;27.53;20.60;;;;;;;;;;5118939;28;20444;-79
2021/10/07 08:49:13;;;;;;;31.10;23.33;;;;;;;;;;5115759;27;20479;-79
2021/10/07 08:51:40;;;;;;;31.80;21.53;;;;;;;;;;5103169;28;20454;-76
2021/10/07 08:54:07;;;;;;;27.67;20.87;;;;;;;;;;5116185;28;20470;-81
2021/10/07 08:56:35;;;;;;;30.40;21.57;;;;;;;;;;5118433;27;20433;-82
2021/10/07 08:59:02;;;;;;;26.77;20.90;;;;;;;;;;5108066;27;20467;-77
2021/10/07 09:01:44;;;;;;;28.03;21.20;;;;;;;;;;5106706;28;20454;-78
2021/10/07 09:04:21;;;;;;;32.63;21.73;;;;;;;;;;5121532;28;20457;-76
2021/10/07 09:06:49;;;;;;;26.07;19.57;;;;;;;;;;5111366;28;20450;-80
2021/10/07 09:09:17;;;;;;;29.30;21.50;;;;;;;;;;5103434;28;20486;-81
2021/10/07 09:11:49;;;;;;;27.83;20.67;;;;;;;;;;5110924;27;20927;-79
2021/10/07 09:14:18;;;;;;;23.80;18.23;;;;;;;;;;5107409;27;20455;-84
2021/10/07 09:16:46;;;;;;;25.50;19.23;;;;;;;;;;5117681;27;20446;-75
2021/10/07 09:19:15;;;;;;;25.33;19.30;;;;;;;;;;5123653;27;21143;-79
2021/10/07 09:21:43;;;;;;;24.90;18.87;;;;;;;;;;5111152;27;20459;-78
2021/10/07 09:24:25;;;;;;;24.17;18.90;;;;;;;;;;5110563;27;20477;-79
2021/10/07 09:26:53;;;;;;;22.60;17.87;;;;;;;;;;5113968;28;20908;-85
2021/10/07 09:29:31;;;;;;;22.07;16.20;;;;;;;;;;5109282;27;20484;-78
2021/10/07 09:31:58;;;;;;;23.50;15.97;;;;;;;;;;5107258;27;20943;-80
2021/10/07 09:34:37;;;;;;;20.83;16.47;;;;;;;;;;5111433;27;20458;-76
2021/10/07 09:37:17;;;;;;;20.50;16.10;;;;;;;;;;5118420;27;20452;-82
2021/10/07 09:39:47;;;;;;;22.40;16.33;;;;;;;;;;5107336;27;20445;-81
2021/10/07 09:42:17;;;;;;;18.60;13.87;;;;;;;;;;5115030;27;20470;-80
2021/10/07 09:44:57;;;;;;;23.37;17.83;;;;;;;;;;5120656;27;20918;-81
2021/10/07 09:47:28;;;;;;;22.53;16.53;;;;;;;;;;5108731;27;20480;-78
2021/10/07 09:50:09;;;;;;;18.20;15.30;;;;;;;;;;5115818;27;20488;-78
2021/10/07 09:52:38;;;;;;;22.97;15.90;;;;;;;;;;5117557;27;20454;-78
2021/10/07 09:55:09;;;;;;;18.00;15.00;;;;;;;;;;5105816;27;20445;-81
2021/10/07 09:57:47;;;;;;;20.73;15.43;;;;;;;;;;5110951;27;20779;-80
2021/10/07 10:00:15;;;;;;;24.20;17.23;;;;;;;;;;5108056;27;20523;-81
2021/10/07 10:02:42;;;;;;;20.00;15.20;;;;;;;;;;5123563;27;20428;-82
2021/10/07 10:05:10;;;;;;;16.23;13.70;;;;;;;;;;5109926;27;20458;-77
2021/10/07 10:07:38;;;;;;;19.20;15.00;;;;;;;;;;5123901;27;20483;-81
2021/10/07 10:10:06;;;;;;;19.00;14.67;;;;;;;;;;5113880;27;20493;-79
2021/10/07 10:12:34;;;;;;;20.77;15.83;;;;;;;;;;5108408;27;20837;-79
2021/10/07 10:15:02;;;;;;;21.27;16.07;;;;;;;;;;5114470;27;20447;-81
2021/10/07 10:17:29;;;;;;;19.33;15.23;;;;;;;;;;5113399;27;20962;-76
2021/10/07 10:19:58;;;;;;;17.60;14.27;;;;;;;;;;5109505;28;20480;-82
2021/10/07 10:22:26;;;;;;;16.20;13.50;;;;;;;;;;5106007;27;20549;-80
2021/10/07 10:24:54;;;;;;;15.73;13.67;;;;;;;;;;5111779;27;21062;-77
2021/10/07 10:27:22;;;;;;;16.63;13.50;;;;;;;;;;5101647;27;20455;-78
2021/10/07 10:29:49;;;;;;;18.70;13.43;;;;;;;;;;5114698;27;20547;-82
2021/10/07 10:32:16;;;;;;;14.03;12.40;;;;;;;;;;5116371;27;20446;-79
2021/10/07 10:34:45;;;;;;;13.30;11.90;;;;;;;;;;5104155;27;21388;-79
2021/10/07 10:37:12;;;;;;;14.33;12.47;;;;;;;;;;5106596;27;20916;-78
2021/10/07 10:39:40;;;;;;;14.47;12.50;;;;;;;;;;5104799;27;20809;-79
2021/10/07 10:42:10;;;;;;;15.50;13.27;;;;;;;;;;5109210;27;20461;-79
2021/10/07 10:44:40;;;;;;;13.83;12.53;;;;;;;;;;5101953;27;20425;-81
2021/10/07 10:47:22;;;;;;;15.77;13.20;;;;;;;;;;5099473;27;20844;-78
2021/10/07 10:49:58;;;;;;;13.20;11.80;;;;;;;;;;5094431;27;20460;-81
2021/10/07 10:52:25;;;;;;;17.70;14.50;;;;;;;;;;5107305;27;20842;-84
2021/10/07 10:54:53;;;;;;;15.90;13.10;;;;;;;;;;5105955;27;20474;-78
2021/10/07 10:57:30;;;;;;;15.10;11.97;;;;;;;;;;5091234;28;20443;-79
2021/10/07 11:00:12;;;;;;;14.57;11.90;;;;;;;;;;5107467;27;20437;-84
2021/10/07 11:02:40;;;;;;;14.00;12.03;;;;;;;;;;5111346;28;20441;-80
2021/10/07 11:05:16;;;;;;;12.60;10.40;;;;;;;;;;5097605;27;20432;-79
2021/10/07 11:07:43;;;;;;;14.77;12.00;;;;;;;;;;5111855;27;20466;-83
2021/10/07 11:10:12;;;;;;;12.40;11.10;;;;;;;;;;5113659;28;20814;-77
2021/10/07 11:12:50;;;;;;;13.37;11.37;;;;;;;;;;5107791;27;20493;-77
2021/10/07 11:15:17;;;;;;;13.90;12.20;;;;;;;;;;5109399;27;20762;-80
2021/10/07 11:17:45;;;;;;;12.10;10.23;;;;;;;;;;5113049;27;20427;-78
2021/10/07 11:20:14;;;;;;;13.40;11.97;;;;;;;;;;5101706;28;20427;-77
2021/10/07 11:22:41;;;;;;;13.87;11.23;;;;;;;;;;5105309;27;20838;-78
2021/10/07 11:25:10;;;;;;;12.67;10.87;;;;;;;;;;5118047;27;20932;-78
2021/10/07 11:27:39;;;;;;;13.13;10.53;;;;;;;;;;5102952;28;20460;-77
2021/10/07 11:30:09;;;;;;;14.40;11.07;;;;;;;;;;5130350;27;20485;-77
2021/10/07 11:32:36;;;;;;;13.53;11.20;;;;;;;;;;5118088;27;20428;-77
2021/10/07 11:35:05;;;;;;;13.53;9.83;;;;;;;;;;5111335;27;20800;-78
2021/10/07 11:37:47;;;;;;;11.40;10.20;;;;;;;;;;5116247;27;20448;-77
2021/10/07 11:40:24;;;;;;;14.53;10.70;;;;;;;;;;5113977;27;20431;-79
2021/10/07 11:42:51;;;;;;;11.57;10.37;;;;;;;;;;5109545;28;20444;-78
2021/10/07 11:45:20;;;;;;;12.50;11.17;;;;;;;;;;5111271;28;20439;-78
2021/10/07 11:47:47;;;;;;;14.60;10.60;;;;;;;;;;5108396;27;20901;-79
2021/10/07 11:50:15;;;;;;;11.93;10.23;;;;;;;;;;5109643;28;20488;-82
2021/10/07 11:52:43;;;;;;;13.30;8.70;;;;;;;;;;5117197;27;21890;-81
2021/10/07 11:55:12;;;;;;;13.30;10.63;;;;;;;;;;5115130;27;20425;-79
2021/10/07 11:57:46;;;;;;;11.03;8.87;;;;;;;;;;5091122;28;20527;-80
2021/10/07 12:00:14;;;;;;;11.97;10.67;;;;;;;;;;5106084;28;20778;-78
2021/10/07 12:02:42;;;;;;;12.07;9.77;;;;;;;;;;5106064;28;20469;-78
2021/10/07 12:05:17;;;;;;;13.17;11.00;;;;;;;;;;5110586;28;20433;-80
2021/10/07 12:07:44;;;;;;;13.70;10.80;;;;;;;;;;5103177;27;20473;-81
2021/10/07 12:10:11;;;;;;;10.57;9.30;;;;;;;;;;5113989;27;20484;-81
2021/10/07 12:12:38;;;;;;;12.07;9.00;;;;;;;;;;5131360;27;20474;-77
2021/10/07 12:15:06;;;;;;;10.77;9.80;;;;;;;;;;5100775;27;20459;-78
2021/10/07 12:17:33;;;;;;;10.80;9.70;;;;;;;;;;5105521;27;20487;-81
2021/10/07 12:20:03;;;;;;;12.13;10.17;;;;;;;;;;5110851;28;20497;-77
2021/10/07 12:22:31;;;;;;;11.27;8.57;;;;;;;;;;5113298;27;20499;-79
2021/10/07 12:25:00;;;;;;;8.60;7.80;;;;;;;;;;5115987;27;20439;-79
2021/10/07 12:27:33;;;;;;;10.70;8.10;;;;;;;;;;5094248;28;20440;-79
2021/10/07 12:30:05;;;;;;;10.33;8.63;;;;;;;;;;5095028;28;20832;-84
2021/10/07 12:32:32;;;;;;;9.00;8.10;;;;;;;;;;5104658;28;20976;-84
2021/10/07 12:35:00;;;;;;;8.00;7.20;;;;;;;;;;5103289;27;20438;-80
2021/10/07 12:37:30;;;;;;;7.67;6.90;;;;;;;;;;5102191;27;20433;-79
2021/10/07 12:39:59;;;;;;;8.83;7.47;;;;;;;;;;5103652;27;22531;-78
2021/10/07 12:42:27;;;;;;;9.20;7.23;;;;;;;;;;5107766;27;20594;-79
2021/10/07 12:44:56;;;;;;;8.87;7.97;;;;;;;;;;5108573;28;20511;-79
2021/10/07 12:47:27;;;;;;;8.90;8.00;;;;;;;;;;5103668;27;20430;-80
2021/10/07 12:49:55;;;;;;;6.93;6.23;;;;;;;;;;5113477;28;20890;-77
2021/10/07 12:52:25;;;;;;;9.20;7.43;;;;;;;;;;5115400;27;22012;-80
2021/10/07 12:54:54;;;;;;;8.13;7.33;;;;;;;;;;5110928;27;20481;-79
2021/10/07 12:57:36;;;;;;;8.00;7.30;;;;;;;;;;5088541;28;20939;-77
2021/10/07 13:00:05;;;;;;;7.93;7.13;;;;;;;;;;5094572;28;20430;-78
2021/10/07 13:02:32;;;;;;;7.00;6.30;;;;;;;;;;5104777;28;20477;-79
2021/10/07 13:05:11;;;;;;;6.93;6.10;;;;;;;;;;5090198;28;20555;-77
2021/10/07 13:07:39;;;;;;;8.10;7.30;;;;;;;;;;5118907;28;20413;-77
2021/10/07 13:10:08;;;;;;;7.97;7.17;;;;;;;;;;5110477;28;20465;-76
2021/10/07 13:12:35;;;;;;;8.67;7.10;;;;;;;;;;5090477;28;20849;-79
2021/10/07 13:15:02;;;;;;;8.03;7.23;;;;;;;;;;5098670;28;20428;-78
2021/10/07 13:17:29;;;;;;;8.00;7.20;;;;;;;;;;5103911;28;20830;-77
2021/10/07 13:19:56;;;;;;;7.43;6.73;;;;;;;;;;5111516;28;20650;-76
2021/10/07 13:22:24;;;;;;;8.00;7.03;;;;;;;;;;5107173;28;20456;-81
2021/10/07 13:24:51;;;;;;;9.00;7.50;;;;;;;;;;5114633;27;20549;-78
2021/10/07 13:27:23;;;;;;;7.53;6.90;;;;;;;;;;5124727;27;20474;-78
2021/10/07 13:29:50;;;;;;;8.30;7.60;;;;;;;;;;5106253;27;20479;-79
2021/10/07 13:32:18;;;;;;;7.10;6.40;;;;;;;;;;5104946;28;20461;-79
2021/10/07 13:34:45;;;;;;;6.60;6.00;;;;;;;;;;5111671;28;20435;-78
2021/10/07 13:37:13;;;;;;;7.37;6.67;;;;;;;;;;5109185;28;20777;-77
2021/10/07 13:39:40;;;;;;;6.87;6.20;;;;;;;;;;5103307;28;20821;-78
2021/10/07 13:42:07;;;;;;;6.13;5.57;;;;;;;;;;5104478;28;20458;-76
2021/10/07 13:44:36;;;;;;;6.40;5.80;;;;;;;;;;5110178;28;20422;-78
2021/10/07 13:47:03;;;;;;;6.67;5.90;;;;;;;;;;5106228;28;20435;-75
2021/10/07 13:49:30;;;;;;;5.97;5.33;;;;;;;;;;5105265;28;20933;-77
2021/10/07 13:51:58;;;;;;;6.80;6.00;;;;;;;;;;5105638;28;20438;-79
2021/10/07 13:54:25;;;;;;;5.93;5.33;;;;;;;;;;5113433;27;20442;-81
2021/10/07 13:56:52;;;;;;;7.73;6.10;;;;;;;;;;5113152;27;20418;-79
2021/10/07 13:59:19;;;;;;;9.07;5.77;;;;;;;;;;5106119;27;20426;-81
2021/10/07 14:01:48;;;;;;;6.53;5.83;;;;;;;;;;5109093;27;20441;-78
2021/10/07 14:04:15;;;;;;;7.10;5.80;;;;;;;;;;5110936;28;21025;-80
2021/10/07 14:06:42;;;;;;;6.07;5.47;;;;;;;;;;5111338;27;20967;-83
2021/10/07 14:09:09;;;;;;;6.20;5.70;;;;;;;;;;5117274;27;20430;-79
2021/10/07 14:11:36;;;;;;;6.00;5.40;;;;;;;;;;5109382;27;20464;-81
2021/10/07 14:14:04;;;;;;;5.57;5.07;;;;;;;;;;5107148;27;20460;-79
2021/10/07 14:16:31;;;;;;;6.37;5.77;;;;;;;;;;5111265;28;20811;-79
2021/10/07 14:18:59;;;;;;;6.50;5.73;;;;;;;;;;5097611;27;20505;-79
2021/10/07 14:21:27;;;;;;;6.37;5.70;;;;;;;;;;5111809;27;20455;-79
2021/10/07 14:23:54;;;;;;;6.27;5.40;;;;;;;;;;5116601;27;20436;-82
2021/10/07 14:26:21;;;;;;;6.33;5.20;;;;;;;;;;5105915;27;20438;-78
2021/10/07 14:28:48;;;;;;;6.00;5.43;;;;;;;;;;5110511;28;20417;-79
2021/10/07 14:31:15;;;;;;;5.90;5.40;;;;;;;;;;5110328;28;20453;-78
2021/10/07 14:33:43;;;;;;;7.57;5.43;;;;;;;;;;5107918;28;20805;-80
2021/10/07 14:36:12;;;;;;;6.17;5.57;;;;;;;;;;5111128;28;20432;-79